Time;durP1;ratioP1;P1;durP2;ratioP2;P2;SDS_P1;SDS_P2;PMS_P1;PMS_P2;Temp;Humidity;BMP_temperature;BMP_pressure;BME280_temperature;BME280_humidity;BME280_pressure;Samples;Min_cycle;Max_cycle;Signal;HPM_P1;HPM_P2
2023/12/12 00:01:45;;;;;;;46.28;17.92;;;13.90;99.90;;;;;;7381544;19;20011;-73
2023/12/12 00:04:15;;;;;;;40.13;18.30;;;13.90;99.90;;;;;;7402870;19;20015;-74
2023/12/12 00:06:46;;;;;;;45.38;19.92;;;14.00;99.90;;;;;;7380269;19;20003;-74
2023/12/12 00:09:15;;;;;;;35.38;16.92;;;14.00;99.90;;;;;;7380595;19;20051;-73
2023/12/12 00:11:43;;;;;;;46.22;19.75;;;14.00;99.90;;;;;;7381415;19;20015;-74
2023/12/12 00:14:12;;;;;;;37.67;18.77;;;14.00;99.90;;;;;;7380736;19;20062;-74
2023/12/12 00:16:41;;;;;;;33.55;18.55;;;14.00;99.90;;;;;;7389895;19;20067;-75
2023/12/12 00:19:09;;;;;;;40.83;18.65;;;14.00;99.90;;;;;;7401554;19;20027;-74
2023/12/12 00:21:38;;;;;;;41.88;19.13;;;14.00;99.90;;;;;;7379517;19;20002;-73
2023/12/12 00:24:09;;;;;;;41.92;19.20;;;14.10;99.90;;;;;;7380892;19;20105;-74
2023/12/12 00:26:38;;;;;;;;;;;14.10;99.90;;;;;;7380629;19;20063;-74
2023/12/12 00:29:06;;;;;;;38.63;18.85;;;14.10;99.90;;;;;;7379255;19;19907;-74
2023/12/12 00:31:35;;;;;;;35.15;20.20;;;14.10;99.90;;;;;;7400790;19;20472;-74
2023/12/12 00:34:04;;;;;;;35.88;19.85;;;14.20;99.90;;;;;;7378843;19;20066;-74
2023/12/12 00:36:32;;;;;;;44.78;21.10;;;14.20;99.90;;;;;;7381197;19;20023;-74
2023/12/12 00:39:01;;;;;;;56.58;23.08;;;14.20;99.90;;;;;;7379229;19;20078;-74
2023/12/12 00:41:38;;;;;;;44.78;22.17;;;14.20;99.90;;;;;;7378133;19;20002;-74
2023/12/12 00:44:07;;;;;;;45.05;21.17;;;14.20;99.90;;;;;;7379237;19;20058;-74
2023/12/12 00:46:37;;;;;;;45.65;20.27;;;14.10;99.90;;;;;;7400693;19;20093;-73
2023/12/12 00:49:08;;;;;;;42.33;20.95;;;14.10;99.90;;;;;;7378146;19;20006;-73
2023/12/12 00:51:37;;;;;;;41.60;19.33;;;14.20;99.90;;;;;;7378208;19;20149;-74
2023/12/12 00:54:05;;;;;;;48.10;21.75;;;14.20;99.90;;;;;;7378707;19;20003;-74
2023/12/12 00:56:34;;;;;;;47.53;22.10;;;14.20;99.90;;;;;;7378719;19;20003;-73
2023/12/12 00:59:05;;;;;;;49.40;21.67;;;14.20;99.90;;;;;;7378379;19;20015;-73
2023/12/12 01:01:34;;;;;;;46.38;19.50;;;14.20;99.90;;;;;;7400109;19;20233;-74
2023/12/12 01:04:03;;;;;;;48.08;21.60;;;14.20;99.90;;;;;;7377619;19;20025;-74
2023/12/12 01:06:31;;;;;;;46.20;20.38;;;14.20;99.90;;;;;;7377956;19;20019;-74
2023/12/12 01:09:00;;;;;;;46.90;20.10;;;14.20;99.90;;;;;;7378281;19;20023;-74
2023/12/12 01:11:29;;;;;;;46.30;19.25;;;14.20;99.90;;;;;;7378305;19;20062;-74
2023/12/12 01:13:59;;;;;;;41.17;19.92;;;14.20;99.90;;;;;;7378439;19;20071;-73
2023/12/12 01:16:30;;;;;;;35.85;18.77;;;14.20;99.90;;;;;;7400603;19;20018;-74
2023/12/12 01:18:59;;;;;;;42.13;21.85;;;14.20;99.90;;;;;;7377193;19;20006;-73
2023/12/12 01:21:28;;;;;;;47.42;20.17;;;14.20;99.90;;;;;;7377674;19;20074;-73
2023/12/12 01:23:57;;;;;;;44.05;21.50;;;14.20;99.90;;;;;;7379735;19;20024;-73
2023/12/12 01:26:26;;;;;;;54.72;22.35;;;14.20;99.90;;;;;;7378006;19;20014;-74
2023/12/12 01:28:55;;;;;;;41.53;20.17;;;14.20;99.90;;;;;;7377361;19;20241;-73
2023/12/12 01:31:24;;;;;;;38.47;18.65;;;14.20;99.90;;;;;;7397631;19;20002;-73
2023/12/12 01:33:57;;;;;;;44.90;19.55;;;14.20;99.90;;;;;;7377205;19;20007;-72
2023/12/12 01:36:25;;;;;;;36.33;17.95;;;14.20;99.90;;;;;;7385137;19;20007;-73
2023/12/12 01:38:54;;;;;;;34.20;17.60;;;14.20;99.90;;;;;;7385044;19;20003;-73
2023/12/12 01:41:22;;;;;;;47.05;18.98;;;14.30;99.90;;;;;;7385149;19;20066;-73
2023/12/12 01:43:51;;;;;;;40.83;17.75;;;14.30;99.90;;;;;;7384536;19;20241;-73
2023/12/12 01:46:22;;;;;;;38.05;18.25;;;14.30;99.90;;;;;;7406196;19;20027;-73
2023/12/12 01:48:51;;;;;;;42.38;17.50;;;14.30;99.90;;;;;;7384432;19;20318;-74
2023/12/12 01:51:23;;;;;;;39.65;17.52;;;14.30;99.90;;;;;;7383069;19;20002;-73
2023/12/12 01:53:54;;;;;;;41.17;17.90;;;14.30;99.90;;;;;;7384358;19;20322;-74
2023/12/12 01:56:23;;;;;;;36.10;19.17;;;14.30;99.90;;;;;;7382521;19;20010;-74
2023/12/12 01:58:54;;;;;;;53.42;24.30;;;14.40;99.90;;;;;;7383143;19;20022;-73
2023/12/12 02:01:23;;;;;;;65.82;26.73;;;14.30;99.90;;;;;;7405692;19;20289;-73
2023/12/12 02:03:55;;;;;;;59.92;26.13;;;14.30;99.90;;;;;;7383375;19;20255;-74
2023/12/12 02:06:28;;;;;;;;;;;14.30;99.90;;;;;;7385003;19;19998;-72
2023/12/12 02:08:56;;;;;;;55.75;21.23;;;14.30;99.90;;;;;;7384169;19;19907;-73
2023/12/12 02:11:25;;;;;;;52.28;21.17;;;14.30;99.90;;;;;;7382511;19;20006;-74
2023/12/12 02:13:54;;;;;;;54.38;21.90;;;14.20;99.90;;;;;;7383850;19;20422;-74
2023/12/12 02:16:22;;;;;;;54.08;22.80;;;14.20;99.90;;;;;;7405428;19;20022;-74
2023/12/12 02:18:51;;;;;;;39.28;18.98;;;14.20;99.90;;;;;;7383284;19;20042;-72
2023/12/12 02:21:24;;;;;;;52.85;20.17;;;14.30;99.90;;;;;;7385092;19;20015;-73
2023/12/12 02:23:52;;;;;;;41.53;19.67;;;14.20;99.90;;;;;;7383729;19;20015;-74
2023/12/12 02:26:21;;;;;;;38.70;18.38;;;14.20;99.90;;;;;;7381268;19;20007;-73
2023/12/12 02:28:50;;;;;;;40.88;18.63;;;14.20;99.90;;;;;;7400462;19;20111;-74
2023/12/12 02:31:19;;;;;;;45.95;18.50;;;14.30;99.90;;;;;;7402717;19;20023;-73
2023/12/12 02:33:47;;;;;;;38.08;18.30;;;14.30;99.90;;;;;;7382763;19;20007;-74
2023/12/12 02:36:17;;;;;;;46.55;16.75;;;14.30;99.90;;;;;;7382843;19;20594;-73
2023/12/12 02:38:48;;;;;;;43.88;17.17;;;14.20;99.90;;;;;;7383571;19;20082;-73
2023/12/12 02:41:18;;;;;;;35.65;16.73;;;14.30;99.90;;;;;;7383696;19;20310;-74
2023/12/12 02:43:46;;;;;;;29.48;14.93;;;14.30;99.90;;;;;;7404920;19;20019;-74
2023/12/12 02:46:15;;;;;;;30.67;14.55;;;14.30;99.90;;;;;;7382070;19;20296;-73
2023/12/12 02:48:44;;;;;;;37.78;19.13;;;14.30;99.90;;;;;;7382698;19;20026;-73
2023/12/12 02:51:12;;;;;;;47.65;20.52;;;14.30;99.90;;;;;;7381812;19;20011;-74
2023/12/12 02:53:41;;;;;;;48.42;24.13;;;14.30;99.90;;;;;;7383109;19;20003;-74
2023/12/12 02:56:12;;;;;;;49.10;20.60;;;14.30;99.90;;;;;;7383447;19;20006;-73
2023/12/12 02:58:43;;;;;;;37.40;18.85;;;14.30;99.90;;;;;;7404358;19;20014;-74
2023/12/12 03:01:14;;;;;;;33.10;17.27;;;14.30;99.90;;;;;;7381988;19;20445;-73
2023/12/12 03:03:42;;;;;;;35.03;15.77;;;14.30;99.90;;;;;;7382518;19;20058;-73
2023/12/12 03:06:11;;;;;;;26.35;11.98;;;14.30;99.90;;;;;;7382422;19;20003;-73
2023/12/12 03:08:40;;;;;;;30.63;10.98;;;14.20;99.90;;;;;;7382453;19;20020;-74
2023/12/12 03:11:08;;;;;;;13.50;8.85;;;14.20;99.90;;;;;;7380925;19;20019;-74
2023/12/12 03:13:40;;;;;;;22.33;9.77;;;14.30;99.90;;;;;;7403695;19;20010;-74
2023/12/12 03:16:09;;;;;;;18.70;8.80;;;14.30;99.90;;;;;;7381945;19;20002;-73
2023/12/12 03:18:38;;;;;;;23.05;10.43;;;14.40;99.90;;;;;;7382102;19;20042;-73
2023/12/12 03:21:07;;;;;;;30.02;13.35;;;14.40;99.90;;;;;;7381754;19;20023;-74
2023/12/12 03:23:36;;;;;;;30.48;15.48;;;14.40;99.90;;;;;;7382231;19;20061;-73
2023/12/12 03:26:08;;;;;;;27.98;15.20;;;14.40;99.90;;;;;;7381733;19;20062;-72
2023/12/12 03:28:40;;;;;;;31.15;13.30;;;14.40;99.90;;;;;;7403425;19;20011;-73
2023/12/12 03:31:10;;;;;;;26.50;10.55;;;14.40;99.90;;;;;;7379441;19;20284;-74
2023/12/12 03:33:39;;;;;;;23.75;10.25;;;14.40;99.90;;;;;;7380912;19;20290;-73
2023/12/12 03:36:10;;;;;;;21.40;10.88;;;14.50;99.90;;;;;;7381099;19;20007;-74
2023/12/12 03:38:38;;;;;;;29.90;10.37;;;14.50;99.90;;;;;;7381745;19;20007;-73
2023/12/12 03:41:07;;;;;;;21.95;9.13;;;14.40;99.90;;;;;;7381240;19;20007;-74
2023/12/12 03:43:36;;;;;;;21.63;8.82;;;14.50;99.90;;;;;;7403097;19;20007;-74
2023/12/12 03:46:07;;;;;;;15.77;9.65;;;14.50;99.90;;;;;;7382726;19;20014;-74
2023/12/12 03:48:36;;;;;;;;;;;14.50;99.90;;;;;;7381495;19;20007;-73
2023/12/12 03:51:02;;;;;;;15.05;8.40;;;14.50;99.90;;;;;;7378714;19;19923;-73
2023/12/12 03:53:30;;;;;;;20.05;8.77;;;14.50;99.90;;;;;;7380727;19;20417;-73
2023/12/12 03:55:59;;;;;;;17.85;8.73;;;14.50;99.90;;;;;;7380910;19;20010;-73
2023/12/12 03:58:28;;;;;;;16.10;9.23;;;14.50;99.90;;;;;;7401001;19;20010;-73
2023/12/12 04:00:57;;;;;;;23.48;9.88;;;14.50;99.90;;;;;;7379886;19;20003;-74
2023/12/12 04:03:28;;;;;;;21.45;9.55;;;14.50;99.90;;;;;;7380716;19;20381;-74
2023/12/12 04:05:57;;;;;;;;;;;14.50;99.90;;;;;;7381445;19;20007;-74
2023/12/12 04:08:25;;;;;;;23.92;9.75;;;14.60;99.90;;;;;;7380855;19;19927;-73
2023/12/12 04:10:56;;;;;;;21.90;10.30;;;14.60;99.90;;;;;;7401319;19;20035;-73
2023/12/12 04:13:24;;;;;;;22.15;9.93;;;14.50;99.90;;;;;;7382783;19;20003;-73
2023/12/12 04:15:53;;;;;;;19.98;10.70;;;14.50;99.90;;;;;;7379597;19;20002;-73
2023/12/12 04:18:22;;;;;;;20.83;10.50;;;14.60;99.90;;;;;;7380040;19;20002;-73
2023/12/12 04:20:53;;;;;;;30.38;12.10;;;14.50;99.90;;;;;;7380458;19;20078;-73
2023/12/12 04:23:22;;;;;;;19.23;11.70;;;14.60;99.90;;;;;;7381101;19;20006;-73
2023/12/12 04:25:53;;;;;;;21.58;10.43;;;14.60;99.90;;;;;;7402744;19;20386;-73
2023/12/12 04:28:21;;;;;;;32.00;11.55;;;14.50;99.90;;;;;;7380526;19;20011;-74
2023/12/12 04:30:50;;;;;;;19.85;10.00;;;14.60;99.90;;;;;;7379576;19;20066;-73
2023/12/12 04:33:19;;;;;;;26.13;11.23;;;14.50;99.90;;;;;;7379899;19;20002;-74
2023/12/12 04:35:48;;;;;;;21.67;10.48;;;14.60;99.90;;;;;;7379636;19;20347;-75
2023/12/12 04:38:21;;;;;;;23.80;10.15;;;14.60;99.90;;;;;;7379060;19;20078;-74
2023/12/12 04:40:52;;;;;;;28.58;11.30;;;14.60;99.90;;;;;;7401048;19;20002;-73
2023/12/12 04:43:22;;;;;;;20.23;10.55;;;14.60;99.90;;;;;;7379050;19;20003;-73
2023/12/12 04:45:50;;;;;;;26.90;12.00;;;14.60;99.90;;;;;;7378977;19;20052;-73
2023/12/12 04:48:19;;;;;;;31.90;12.27;;;14.60;99.90;;;;;;7379003;19;20020;-74
2023/12/12 04:50:48;;;;;;;31.63;13.27;;;14.50;99.90;;;;;;7378438;19;20019;-74
2023/12/12 04:53:20;;;;;;;34.58;13.43;;;14.50;99.90;;;;;;7379062;19;20023;-74
2023/12/12 04:55:48;;;;;;;37.08;13.43;;;14.50;99.90;;;;;;7400365;19;20062;-73
2023/12/12 04:58:17;;;;;;;35.83;13.98;;;14.60;99.90;;;;;;7375755;19;20006;-73
2023/12/12 05:00:46;;;;;;;32.22;12.90;;;14.60;99.90;;;;;;7379338;19;20079;-73
2023/12/12 05:03:14;;;;;;;26.05;13.10;;;14.60;99.90;;;;;;7379083;19;20006;-74
2023/12/12 05:05:44;;;;;;;26.70;12.68;;;14.60;99.90;;;;;;7378939;19;20016;-73
2023/12/12 05:08:13;;;;;;;35.30;12.88;;;14.60;99.90;;;;;;7377761;19;20016;-74
2023/12/12 05:10:45;;;;;;;24.33;11.82;;;14.60;99.90;;;;;;7398296;19;20019;-73
2023/12/12 05:13:13;;;;;;;;;;;14.60;99.90;;;;;;7378712;19;20007;-74
2023/12/12 05:15:42;;;;;;;28.50;12.98;;;14.70;99.90;;;;;;7377576;19;19998;-74
2023/12/12 05:18:11;;;;;;;31.02;14.60;;;14.60;99.90;;;;;;7378459;19;20007;-74
2023/12/12 05:20:39;;;;;;;31.17;15.07;;;14.60;99.90;;;;;;7378728;19;20003;-74
2023/12/12 05:23:08;;;;;;;29.35;16.75;;;14.60;99.90;;;;;;7377799;19;20002;-73
2023/12/12 05:25:37;;;;;;;34.33;16.85;;;14.60;99.90;;;;;;7399395;19;20011;-73
2023/12/12 05:28:10;;;;;;;36.22;16.08;;;14.70;99.90;;;;;;7377473;19;20019;-74
2023/12/12 05:30:39;;;;;;;36.08;18.60;;;14.60;99.90;;;;;;7377314;19;20020;-74
2023/12/12 05:33:07;;;;;;;37.47;16.52;;;14.70;99.90;;;;;;7377221;19;20011;-74
2023/12/12 05:35:36;;;;;;;38.63;18.23;;;14.70;99.90;;;;;;7377920;19;20010;-73
2023/12/12 05:38:06;;;;;;;36.63;17.70;;;14.70;99.90;;;;;;7379065;19;20007;-73
2023/12/12 05:40:35;;;;;;;41.40;17.75;;;14.70;99.90;;;;;;7398830;19;20033;-73
2023/12/12 05:43:04;;;;;;;42.42;19.13;;;14.70;99.90;;;;;;7377064;19;20107;-73
2023/12/12 05:45:35;;;;;;;39.45;18.65;;;14.70;99.90;;;;;;7377143;19;20044;-73
2023/12/12 05:48:05;;;;;;;50.97;19.30;;;14.70;99.90;;;;;;7377586;19;20003;-73
2023/12/12 05:50:34;;;;;;;54.50;17.70;;;14.70;99.90;;;;;;7376747;19;20014;-74
2023/12/12 05:53:03;;;;;;;41.28;15.90;;;14.60;99.90;;;;;;7392925;19;20002;-75
2023/12/12 05:55:31;;;;;;;49.45;17.98;;;14.70;99.90;;;;;;7398108;19;20304;-73
2023/12/12 05:58:00;;;;;;;50.38;18.67;;;14.70;99.90;;;;;;7376311;19;20007;-74
2023/12/12 06:00:29;;;;;;;46.25;18.55;;;14.70;99.90;;;;;;7376676;19;20011;-74
2023/12/12 06:03:01;;;;;;;44.60;17.30;;;14.70;99.90;;;;;;7376735;19;20388;-74
2023/12/12 06:05:30;;;;;;;56.35;18.65;;;14.60;99.90;;;;;;7377557;19;20007;-74
2023/12/12 06:07:59;;;;;;;54.85;17.80;;;14.70;99.90;;;;;;7398208;19;20007;-74
2023/12/12 06:10:27;;;;;;;46.97;16.80;;;14.70;99.90;;;;;;7376417;19;20062;-74
2023/12/12 06:12:56;;;;;;;44.10;17.88;;;14.70;99.90;;;;;;7375685;19;20024;-74
2023/12/12 06:15:25;;;;;;;43.10;16.88;;;14.70;99.90;;;;;;7376642;19;20101;-74
2023/12/12 06:17:53;;;;;;;36.65;16.20;;;14.70;99.90;;;;;;7376534;19;20006;-74
2023/12/12 06:20:26;;;;;;;43.17;18.80;;;14.70;99.90;;;;;;7376988;19;20608;-73
2023/12/12 06:22:55;;;;;;;42.40;17.83;;;14.70;99.90;;;;;;7405856;19;20023;-74
2023/12/12 06:25:24;;;;;;;40.95;17.73;;;14.70;99.90;;;;;;7383977;19;20244;-74
2023/12/12 06:27:52;;;;;;;32.63;16.27;;;14.70;99.90;;;;;;7384802;19;20059;-74
2023/12/12 06:30:21;;;;;;;43.67;18.27;;;14.70;99.90;;;;;;7384841;19;20019;-74
2023/12/12 06:32:50;;;;;;;37.08;16.17;;;14.70;99.90;;;;;;7384384;19;20011;-74
2023/12/12 06:35:18;;;;;;;37.95;16.83;;;14.70;99.90;;;;;;7384760;19;20232;-74
2023/12/12 06:37:49;;;;;;;40.28;17.25;;;14.70;99.90;;;;;;7405287;19;20082;-74
2023/12/12 06:40:18;;;;;;;38.67;16.98;;;14.70;99.90;;;;;;7382536;19;20049;-73
2023/12/12 06:42:47;;;;;;;37.00;16.95;;;14.70;99.90;;;;;;7383123;19;20057;-74
2023/12/12 06:45:18;;;;;;;32.30;14.90;;;14.70;99.90;;;;;;7382825;19;20014;-74
2023/12/12 06:47:47;;;;;;;27.23;14.43;;;14.70;99.90;;;;;;7383694;19;20010;-74
2023/12/12 06:50:15;;;;;;;42.17;17.58;;;14.70;99.90;;;;;;7380323;19;20014;-74
2023/12/12 06:52:44;;;;;;;39.58;15.38;;;14.60;99.90;;;;;;7404356;19;20082;-73
2023/12/12 06:55:16;;;;;;;37.58;15.48;;;14.70;99.90;;;;;;7382337;19;20006;-73
2023/12/12 06:57:50;;;;;;;28.13;13.85;;;14.70;99.90;;;;;;7384889;19;20013;-74
2023/12/12 07:00:20;;;;;;;16.92;8.93;;;14.60;99.90;;;;;;7385215;19;20011;-74
2023/12/12 07:02:48;;;;;;;22.38;9.80;;;14.60;99.90;;;;;;7384846;19;20073;-73
2023/12/12 07:05:17;;;;;;;17.90;9.65;;;14.60;99.90;;;;;;7383090;19;20014;-73
2023/12/12 07:07:47;;;;;;;13.75;8.25;;;14.60;99.90;;;;;;7401187;19;20011;-73
2023/12/12 07:10:18;;;;;;;17.23;8.85;;;14.70;99.90;;;;;;7381076;19;20095;-73
2023/12/12 07:12:47;;;;;;;19.38;8.55;;;14.70;99.90;;;;;;7381714;19;20402;-74
2023/12/12 07:15:16;;;;;;;9.68;5.82;;;14.80;99.90;;;;;;7381969;19;20058;-75
2023/12/12 07:17:45;;;;;;;9.25;6.00;;;14.50;99.90;;;;;;7382499;19;20003;-74
2023/12/12 07:20:14;;;;;;;9.95;5.13;;;14.60;99.90;;;;;;7381865;19;20011;-73
2023/12/12 07:22:43;;;;;;;10.48;5.22;;;14.60;99.90;;;;;;7402283;19;20016;-74
2023/12/12 07:25:11;;;;;;;14.15;4.97;;;14.50;99.90;;;;;;7381046;19;20003;-74
2023/12/12 07:27:43;;;;;;;8.95;4.80;;;14.60;99.90;;;;;;7381514;19;20074;-74
2023/12/12 07:30:12;;;;;;;5.60;4.20;;;14.70;99.90;;;;;;7381619;19;20086;-74
2023/12/12 07:32:41;;;;;;;8.10;3.85;;;14.70;99.90;;;;;;7378672;19;20010;-74
2023/12/12 07:35:11;;;;;;;5.57;3.90;;;14.70;99.90;;;;;;7369961;19;20076;-73
2023/12/12 07:37:41;;;;;;;8.00;4.28;;;14.80;99.90;;;;;;7381051;19;20058;-74
2023/12/12 07:40:10;;;;;;;4.40;3.90;;;14.80;99.90;;;;;;7380538;19;20011;-73
2023/12/12 07:42:41;;;;;;;7.15;3.85;;;14.80;99.90;;;;;;7381259;19;20006;-74
2023/12/12 07:45:11;;;;;;;6.35;4.15;;;14.80;99.90;;;;;;7380691;19;20414;-74
2023/12/12 07:47:40;;;;;;;5.28;3.33;;;14.80;99.90;;;;;;7381139;19;20007;-73
2023/12/12 07:50:10;;;;;;;12.32;4.05;;;14.80;99.90;;;;;;7380920;19;20018;-74
2023/12/12 07:52:39;;;;;;;7.68;3.70;;;14.80;99.90;;;;;;7401805;19;20024;-75
2023/12/12 07:55:08;;;;;;;6.90;4.03;;;14.90;99.90;;;;;;7380162;19;20047;-74
2023/12/12 07:57:37;;;;;;;11.32;3.90;;;14.80;99.90;;;;;;7381677;19;20003;-73
2023/12/12 08:00:10;;;;;;;5.82;3.25;;;14.80;99.90;;;;;;7380824;19;20071;-74
2023/12/12 08:02:38;;;;;;;5.93;4.03;;;14.90;99.90;;;;;;7380539;19;20010;-73
2023/12/12 08:05:08;;;;;;;8.13;3.92;;;14.80;99.90;;;;;;7404862;19;20090;-77
2023/12/12 08:07:37;;;;;;;5.20;3.38;;;14.80;99.90;;;;;;7384147;19;20384;-77
2023/12/12 08:10:10;;;;;;;9.35;4.00;;;14.80;99.90;;;;;;7383080;19;20020;-77
2023/12/12 08:12:40;;;;;;;7.07;3.28;;;14.80;99.90;;;;;;7383844;19;20014;-79
2023/12/12 08:15:13;;;;;;;5.85;3.63;;;14.70;99.90;;;;;;7384307;19;20003;-77
2023/12/12 08:17:42;;;;;;;8.95;3.60;;;14.80;99.90;;;;;;7387439;19;20039;-79
2023/12/12 08:20:14;;;;;;;6.90;3.60;;;14.70;99.90;;;;;;7392639;19;20006;-80
2023/12/12 08:22:43;;;;;;;8.85;3.72;;;14.70;99.90;;;;;;7407850;19;20011;-78
2023/12/12 08:25:12;;;;;;;6.75;3.47;;;14.70;99.90;;;;;;7387148;19;20365;-80
2023/12/12 08:27:44;;;;;;;9.18;3.42;;;14.70;99.90;;;;;;7389150;19;20017;-81
2023/12/12 08:30:16;;;;;;;6.45;3.72;;;14.80;99.90;;;;;;7403636;19;20014;-80
2023/12/12 08:32:44;;;;;;;6.00;3.70;;;14.80;99.90;;;;;;7397543;19;20402;-80
2023/12/12 08:35:17;;;;;;;8.02;4.32;;;14.90;99.90;;;;;;7399798;19;20010;-80
2023/12/12 08:37:47;;;;;;;8.95;3.70;;;14.90;99.90;;;;;;7404749;19;20003;-77
2023/12/12 08:40:19;;;;;;;7.10;3.30;;;14.90;99.90;;;;;;7386005;19;20011;-77
2023/12/12 08:42:50;;;;;;;5.40;3.28;;;15.00;99.90;;;;;;7385349;19;20015;-78
2023/12/12 08:45:22;;;;;;;7.20;2.97;;;15.00;99.90;;;;;;7385385;19;20389;-78
2023/12/12 08:47:51;;;;;;;4.80;3.03;;;15.00;99.90;;;;;;7389437;19;20081;-77
2023/12/12 08:50:22;;;;;;;3.17;2.63;;;15.00;99.90;;;;;;7382927;19;20017;-78
2023/12/12 08:52:51;;;;;;;8.00;2.45;;;15.00;99.90;;;;;;7407291;19;20018;-78
2023/12/12 08:55:20;;;;;;;3.45;2.47;;;15.00;99.90;;;;;;7385415;19;20046;-79
2023/12/12 08:57:49;;;;;;;6.50;2.30;;;15.00;99.90;;;;;;7391455;19;20015;-81
2023/12/12 09:00:33;;;;;;;2.65;2.00;;;15.00;99.90;;;;;;7390147;19;20476;-81
2023/12/12 09:03:04;;;;;;;3.22;1.90;;;15.10;99.90;;;;;;7388547;19;20002;-81
2023/12/12 09:05:36;;;;;;;3.15;2.28;;;15.00;99.90;;;;;;7385627;19;20051;-77
2023/12/12 09:08:05;;;;;;;6.38;2.20;;;15.10;99.90;;;;;;7409390;19;20086;-79
2023/12/12 09:10:33;;;;;;;2.03;1.50;;;15.10;99.90;;;;;;7389417;19;20010;-78
2023/12/12 09:13:02;;;;;;;3.90;1.70;;;15.20;99.90;;;;;;7384513;19;20111;-80
2023/12/12 09:15:31;;;;;;;6.57;1.70;;;15.10;99.90;;;;;;7383620;19;20018;-78
2023/12/12 09:18:05;;;;;;;5.63;1.90;;;15.10;99.90;;;;;;7383899;19;20010;-79
2023/12/12 09:20:33;;;;;;;4.05;1.77;;;15.10;99.90;;;;;;7383134;19;20018;-77
2023/12/12 09:23:02;;;;;;;3.33;1.90;;;15.10;99.90;;;;;;7400697;19;20028;-74
2023/12/12 09:25:36;;;;;;;4.45;1.65;;;15.20;99.90;;;;;;7383564;19;20015;-79
2023/12/12 09:28:05;;;;;;;2.65;1.90;;;15.20;99.90;;;;;;7383121;19;20312;-79
2023/12/12 09:30:34;;;;;;;4.43;1.48;;;15.20;99.90;;;;;;7380586;19;20015;-77
2023/12/12 09:33:06;;;;;;;1.50;1.40;;;15.10;99.90;;;;;;7383653;19;20318;-81
2023/12/12 09:36:02;;;;;;;3.17;1.88;;;15.10;99.90;;;;;;7384509;19;20013;-82
2023/12/12 09:38:31;;;;;;;5.70;1.30;;;15.10;99.90;;;;;;7381783;19;20014;-80
2023/12/12 09:41:00;;;;;;;5.43;1.50;;;15.10;99.90;;;;;;7405803;19;20003;-80
2023/12/12 09:43:30;;;;;;;5.57;1.20;;;15.10;99.90;;;;;;7382004;19;20007;-80
2023/12/12 09:46:00;;;;;;;2.50;1.10;;;15.20;99.90;;;;;;7383624;19;20052;-76
2023/12/12 09:48:32;;;;;;;2.40;1.20;;;15.20;99.90;;;;;;7380616;19;20042;-77
2023/12/12 09:51:01;;;;;;;5.20;0.95;;;15.20;99.90;;;;;;7378645;19;20015;-75
2023/12/12 09:53:35;;;;;;;6.43;1.55;;;15.20;99.90;;;;;;7380197;19;20051;-77
2023/12/12 09:56:05;;;;;;;5.03;1.27;;;15.20;99.90;;;;;;7403472;19;20011;-80
2023/12/12 09:58:34;;;;;;;3.83;1.23;;;15.20;99.90;;;;;;7389565;19;20284;-77
2023/12/12 10:01:05;;;;;;;5.95;1.30;;;15.20;99.90;;;;;;7386936;19;20085;-77
2023/12/12 10:03:44;;;;;;;7.35;1.05;;;15.30;99.90;;;;;;7392517;19;20183;-78
2023/12/12 10:06:15;;;;;;;9.27;1.33;;;15.30;99.90;;;;;;7394151;19;20007;-80
2023/12/12 10:08:43;;;;;;;3.50;0.95;;;15.20;99.90;;;;;;7393045;19;20069;-82
2023/12/12 10:11:14;;;;;;;6.68;1.10;;;15.20;99.90;;;;;;7412619;19;20034;-76
2023/12/12 10:13:54;;;;;;;3.53;0.98;;;15.20;99.90;;;;;;7382448;19;20421;-77
2023/12/12 10:16:25;;;;;;;2.37;1.00;;;15.20;99.90;;;;;;7388034;19;20017;-78
2023/12/12 10:18:58;;;;;;;5.75;1.15;;;15.10;99.90;;;;;;7386531;19;20066;-76
2023/12/12 10:21:27;;;;;;;9.27;1.73;;;15.20;99.90;;;;;;7386626;19;20078;-75
2023/12/12 10:23:57;;;;;;;9.65;1.00;;;15.20;99.90;;;;;;7386329;19;20013;-78
2023/12/12 10:26:29;;;;;;;6.05;0.95;;;15.10;99.90;;;;;;7387479;19;20015;-77
2023/12/12 10:28:59;;;;;;;8.45;1.50;;;15.00;99.90;;;;;;7407835;19;20011;-76
2023/12/12 10:31:28;;;;;;;5.43;1.20;;;15.20;99.90;;;;;;7387060;19;20011;-76
2023/12/12 10:33:59;;;;;;;5.85;1.17;;;15.30;99.90;;;;;;7383563;19;20010;-75
2023/12/12 10:36:28;;;;;;;3.17;0.95;;;15.30;99.90;;;;;;7382286;19;20254;-75
2023/12/12 10:38:57;;;;;;;6.10;1.08;;;15.40;99.90;;;;;;7386823;19;20374;-75
2023/12/12 10:41:26;;;;;;;7.57;1.05;;;15.50;99.90;;;;;;7385067;19;20074;-74
2023/12/12 10:43:54;;;;;;;4.55;0.90;;;15.40;99.90;;;;;;7406205;19;20246;-72
2023/12/12 10:46:26;;;;;;;7.63;1.05;;;15.50;99.90;;;;;;7385606;19;20131;-75
2023/12/12 10:48:57;;;;;;;6.60;1.10;;;15.50;99.90;;;;;;7383209;19;20075;-75
2023/12/12 10:51:28;;;;;;;4.28;1.08;;;15.50;99.90;;;;;;7381791;19;20020;-74
2023/12/12 10:54:00;;;;;;;5.32;1.20;;;15.50;99.90;;;;;;7381641;19;20023;-77
2023/12/12 10:56:35;;;;;;;4.57;1.17;;;15.40;99.90;;;;;;7382965;19;20011;-77
2023/12/12 10:59:05;;;;;;;7.75;1.13;;;15.50;99.90;;;;;;7404842;19;20014;-76
2023/12/12 11:01:35;;;;;;;3.75;1.38;;;15.40;99.90;;;;;;7382725;19;20052;-75
2023/12/12 11:04:05;;;;;;;8.40;1.90;;;15.60;99.90;;;;;;7381567;19;20023;-75
2023/12/12 11:06:36;;;;;;;9.10;1.55;;;15.60;99.90;;;;;;7380937;19;20009;-75
2023/12/12 11:09:06;;;;;;;13.70;1.85;;;15.60;99.90;;;;;;7380800;19;20002;-75
2023/12/12 11:11:35;;;;;;;7.38;1.70;;;15.50;99.90;;;;;;7381383;19;20070;-74
2023/12/12 11:14:05;;;;;;;14.18;1.50;;;15.60;99.90;;;;;;7400854;19;20397;-73
2023/12/12 11:16:36;;;;;;;7.03;1.52;;;15.50;99.90;;;;;;7380584;19;20019;-75
2023/12/12 11:19:05;;;;;;;12.13;1.58;;;15.50;99.90;;;;;;7380572;19;20013;-74
2023/12/12 11:21:49;;;;;;;4.15;1.40;;;15.10;99.90;;;;;;7381457;19;20354;-76
2023/12/12 11:24:20;;;;;;;10.45;1.83;;;15.00;99.90;;;;;;7381530;19;20086;-75
2023/12/12 11:26:49;;;;;;;4.05;1.40;;;15.20;99.90;;;;;;7381125;19;20003;-75
2023/12/12 11:29:19;;;;;;;7.28;1.40;;;15.30;99.90;;;;;;7402971;19;20007;-73
2023/12/12 11:32:02;;;;;;;12.30;1.80;;;15.30;99.90;;;;;;7381448;19;20010;-76
2023/12/12 11:34:38;;;;;;;11.70;1.98;;;15.30;99.90;;;;;;7378670;19;19999;-76
2023/12/12 11:37:10;;;;;;;13.60;1.90;;;15.30;99.90;;;;;;7380742;19;20102;-74
2023/12/12 11:39:49;;;;;;;10.02;1.60;;;15.30;99.90;;;;;;7380855;19;20013;-75
2023/12/12 11:42:22;;;;;;;11.15;1.98;;;15.30;99.90;;;;;;7381737;19;20031;-76
2023/12/12 11:44:54;;;;;;;13.88;2.03;;;15.40;99.90;;;;;;7381291;19;19999;-78
2023/12/12 11:47:24;;;;;;;8.52;1.85;;;15.30;99.90;;;;;;7381390;19;20010;-77
2023/12/12 11:50:15;;;;;;;13.48;1.73;;;15.40;99.90;;;;;;7401552;19;20006;-77
2023/12/12 11:52:53;;;;;;;12.98;2.17;;;15.20;99.90;;;;;;7380322;19;20007;-77
2023/12/12 11:55:28;;;;;;;12.10;2.25;;;15.30;99.90;;;;;;7379960;19;19999;-78
2023/12/12 11:58:01;;;;;;;11.40;1.98;;;15.30;99.90;;;;;;7380574;19;20003;-76
2023/12/12 12:00:34;;;;;;;17.77;2.20;;;15.30;99.90;;;;;;7379578;19;20002;-75
2023/12/12 12:03:03;;;;;;;11.55;1.85;;;15.40;99.90;;;;;;7380349;19;20052;-77
2023/12/12 12:05:32;;;;;;;9.35;1.98;;;15.30;99.90;;;;;;7380079;19;20007;-76
2023/12/12 12:08:04;;;;;;;18.98;2.22;;;15.40;99.90;;;;;;7401517;19;20024;-76
2023/12/12 12:10:33;;;;;;;15.13;2.35;;;15.30;99.90;;;;;;7379202;19;20019;-75
2023/12/12 12:13:02;;;;;;;21.38;2.80;;;15.30;99.90;;;;;;7379320;19;20024;-74
2023/12/12 12:15:31;;;;;;;13.35;2.08;;;15.30;99.90;;;;;;7380260;19;20070;-74
2023/12/12 12:18:01;;;;;;;19.90;2.17;;;15.20;99.90;;;;;;7379087;19;20011;-77
2023/12/12 12:20:32;;;;;;;15.10;1.85;;;15.20;99.90;;;;;;7378752;19;20011;-75
2023/12/12 12:23:04;;;;;;;21.23;2.38;;;15.10;99.90;;;;;;7402488;19;20017;-76
2023/12/12 12:25:32;;;;;;;4.97;1.60;;;15.10;99.90;;;;;;7379388;19;20007;-73
2023/12/12 12:28:02;;;;;;;16.45;2.03;;;15.00;99.90;;;;;;7378947;19;20003;-75
2023/12/12 12:30:31;;;;;;;11.07;2.15;;;15.00;99.90;;;;;;7379029;19;20010;-74
2023/12/12 12:33:02;;;;;;;10.77;1.98;;;14.90;99.90;;;;;;7379260;19;20009;-76
2023/12/12 12:35:32;;;;;;;10.60;2.13;;;15.00;99.90;;;;;;7379724;19;20362;-76
2023/12/12 12:38:05;;;;;;;5.30;1.65;;;15.10;99.90;;;;;;7402582;19;20006;-76
2023/12/12 12:40:43;;;;;;;10.80;1.80;;;15.00;99.90;;;;;;7385291;19;20011;-80
2023/12/12 12:43:18;;;;;;;12.50;1.40;;;15.00;99.90;;;;;;7392465;19;20002;-78
2023/12/12 12:45:49;;;;;;;14.77;2.13;;;15.00;99.90;;;;;;7399455;19;20007;-79
2023/12/12 12:48:18;;;;;;;7.17;1.57;;;15.00;99.90;;;;;;7401147;19;20074;-78
2023/12/12 12:50:53;;;;;;;10.15;1.42;;;15.00;99.90;;;;;;7388739;19;20032;-77